sensor_id;sensor_type;location;lat;lon;timestamp;pressure;altitude;pressure_sealevel;temperature;humidity
57056;BME280;42945;51.718;5.324;2022-12-18T00:00:43;102663.66;;;-6.82;100.00
57056;BME280;42945;51.718;5.324;2022-12-18T00:03:09;102664.53;;;-6.81;100.00
57056;BME280;42945;51.718;5.324;2022-12-18T00:05:34;102555.75;;;-7.52;100.00
57056;BME280;42945;51.718;5.324;2022-12-18T00:08:00;102616.63;;;-6.96;100.00
57056;BME280;42945;51.718;5.324;2022-12-18T00:10:27;102664.13;;;-6.90;100.00
57056;BME280;42945;51.718;5.324;2022-12-18T00:13:01;102639.28;;;-7.08;100.00
57056;BME280;42945;51.718;5.324;2022-12-18T00:15:27;102603.25;;;-7.06;100.00
57056;BME280;42945;51.718;5.324;2022-12-18T00:17:52;102629.94;;;-7.06;100.00
57056;BME280;42945;51.718;5.324;2022-12-18T00:20:17;102486.75;;;-7.79;100.00
57056;BME280;42945;51.718;5.324;2022-12-18T00:22:50;102635.16;;;-7.04;100.00
57056;BME280;42945;51.718;5.324;2022-12-18T00:25:15;102660.00;;;-7.06;100.00
57056;BME280;42945;51.718;5.324;2022-12-18T00:27:41;102505.84;;;-7.74;100.00
57056;BME280;42945;51.718;5.324;2022-12-18T00:30:08;102616.00;;;-7.09;100.00
57056;BME280;42945;51.718;5.324;2022-12-18T00:32:33;102607.56;;;-7.26;100.00
57056;BME280;42945;51.718;5.324;2022-12-18T00:34:59;102648.94;;;-7.23;100.00
57056;BME280;42945;51.718;5.324;2022-12-18T00:37:24;102719.78;;;-6.57;100.00
57056;BME280;42945;51.718;5.324;2022-12-18T00:39:49;102566.72;;;-7.37;100.00
57056;BME280;42945;51.718;5.324;2022-12-18T00:42:23;102649.69;;;-7.26;100.00
57056;BME280;42945;51.718;5.324;2022-12-18T00:45:17;102490.69;;;-7.87;100.00
57056;BME280;42945;51.718;5.324;2022-12-18T00:47:43;102642.63;;;-7.30;100.00
57056;BME280;42945;51.718;5.324;2022-12-18T00:50:09;102623.41;;;-7.37;100.00
57056;BME280;42945;51.718;5.324;2022-12-18T00:52:35;102617.19;;;-7.42;100.00
57056;BME280;42945;51.718;5.324;2022-12-18T00:55:01;102672.44;;;-7.17;100.00
57056;BME280;42945;51.718;5.324;2022-12-18T00:57:26;102613.06;;;-7.38;100.00
57056;BME280;42945;51.718;5.324;2022-12-18T00:59:51;102635.78;;;-7.29;100.00
57056;BME280;42945;51.718;5.324;2022-12-18T01:02:16;102490.38;;;-8.13;100.00
57056;BME280;42945;51.718;5.324;2022-12-18T01:04:42;102673.63;;;-7.48;100.00
57056;BME280;42945;51.718;5.324;2022-12-18T01:07:08;102509.81;;;-8.19;100.00
57056;BME280;42945;51.718;5.324;2022-12-18T01:09:33;102405.13;;;-8.77;100.00
57056;BME280;42945;51.718;5.324;2022-12-18T01:11:59;102631.72;;;-7.44;100.00
57056;BME280;42945;51.718;5.324;2022-12-18T01:14:24;102637.22;;;-7.36;100.00
57056;BME280;42945;51.718;5.324;2022-12-18T01:16:50;102632.25;;;-7.51;100.00
57056;BME280;42945;51.718;5.324;2022-12-18T01:19:15;102633.44;;;-7.62;100.00
57056;BME280;42945;51.718;5.324;2022-12-18T01:21:40;102637.31;;;-7.53;100.00
57056;BME280;42945;51.718;5.324;2022-12-18T01:24:06;102517.31;;;-8.24;100.00
57056;BME280;42945;51.718;5.324;2022-12-18T01:26:32;102662.44;;;-7.66;100.00
57056;BME280;42945;51.718;5.324;2022-12-18T01:28:57;102633.66;;;-7.58;100.00
57056;BME280;42945;51.718;5.324;2022-12-18T01:31:27;102526.66;;;-8.26;100.00
57056;BME280;42945;51.718;5.324;2022-12-18T01:37:14;102633.72;;;-7.56;100.00
57056;BME280;42945;51.718;5.324;2022-12-18T01:39:39;102591.06;;;-7.69;100.00
57056;BME280;42945;51.718;5.324;2022-12-18T01:42:13;102503.47;;;-8.26;100.00
57056;BME280;42945;51.718;5.324;2022-12-18T01:45:05;102602.59;;;-7.61;100.00
57056;BME280;42945;51.718;5.324;2022-12-18T01:50:13;102647.50;;;-7.56;100.00
57056;BME280;42945;51.718;5.324;2022-12-18T01:52:45;102644.84;;;-7.57;100.00
57056;BME280;42945;51.718;5.324;2022-12-18T01:55:12;102636.44;;;-7.53;100.00
57056;BME280;42945;51.718;5.324;2022-12-18T01:57:39;102601.72;;;-7.61;100.00
57056;BME280;42945;51.718;5.324;2022-12-18T02:00:12;102518.94;;;-8.26;100.00
57056;BME280;42945;51.718;5.324;2022-12-18T02:02:39;102644.78;;;-7.59;100.00
57056;BME280;42945;51.718;5.324;2022-12-18T02:05:05;102610.31;;;-7.61;100.00
57056;BME280;42945;51.718;5.324;2022-12-18T02:07:49;102606.53;;;-7.69;100.00
57056;BME280;42945;51.718;5.324;2022-12-18T02:13:29;102563.81;;;-7.64;100.00
57056;BME280;42945;51.718;5.324;2022-12-18T02:15:59;102572.63;;;-7.59;100.00
57056;BME280;42945;51.718;5.324;2022-12-18T02:18:34;102468.28;;;-8.27;100.00
57056;BME280;42945;51.718;5.324;2022-12-18T02:24:24;102604.16;;;-7.64;100.00
57056;BME280;42945;51.718;5.324;2022-12-18T02:26:58;102652.69;;;-7.54;100.00
57056;BME280;42945;51.718;5.324;2022-12-18T02:29:29;102600.78;;;-7.63;100.00
57056;BME280;42945;51.718;5.324;2022-12-18T02:31:58;102614.41;;;-7.46;100.00
57056;BME280;42945;51.718;5.324;2022-12-18T02:34:28;102598.66;;;-7.53;100.00
57056;BME280;42945;51.718;5.324;2022-12-18T02:36:54;102601.81;;;-7.60;100.00
57056;BME280;42945;51.718;5.324;2022-12-18T02:39:23;102593.41;;;-7.74;100.00
57056;BME280;42945;51.718;5.324;2022-12-18T02:41:50;102594.91;;;-7.79;100.00
57056;BME280;42945;51.718;5.324;2022-12-18T02:44:15;102594.59;;;-7.67;100.00
57056;BME280;42945;51.718;5.324;2022-12-18T02:46:43;102593.75;;;-7.66;100.00
57056;BME280;42945;51.718;5.324;2022-12-18T02:49:27;102634.34;;;-7.80;100.00
57056;BME280;42945;51.718;5.324;2022-12-18T02:54:52;102604.47;;;-7.76;100.00
57056;BME280;42945;51.718;5.324;2022-12-18T02:57:36;102568.91;;;-7.85;100.00
57056;BME280;42945;51.718;5.324;2022-12-18T03:00:12;102605.78;;;-8.04;100.00
57056;BME280;42945;51.718;5.324;2022-12-18T03:02:45;102509.59;;;-8.61;100.00
57056;BME280;42945;51.718;5.324;2022-12-18T03:06:01;102551.78;;;-8.02;100.00
57056;BME280;42945;51.718;5.324;2022-12-18T03:08:22;102594.84;;;-8.18;100.00
57056;BME280;42945;51.718;5.324;2022-12-18T03:11:01;102541.72;;;-8.16;100.00
57056;BME280;42945;51.718;5.324;2022-12-18T03:13:37;102576.00;;;-8.17;100.00
57056;BME280;42945;51.718;5.324;2022-12-18T03:16:06;102605.91;;;-8.01;100.00
57056;BME280;42945;51.718;5.324;2022-12-18T03:18:37;102633.00;;;-8.09;100.00
57056;BME280;42945;51.718;5.324;2022-12-18T03:21:05;102455.81;;;-8.93;100.00
57056;BME280;42945;51.718;5.324;2022-12-18T03:23:35;102356.53;;;-9.62;100.00
57056;BME280;42945;51.718;5.324;2022-12-18T03:26:06;102575.56;;;-8.26;100.00
57056;BME280;42945;51.718;5.324;2022-12-18T03:28:37;102567.03;;;-8.25;100.00
57056;BME280;42945;51.718;5.324;2022-12-18T03:31:05;102580.41;;;-8.32;100.00
57056;BME280;42945;51.718;5.324;2022-12-18T03:33:41;102613.94;;;-8.31;100.00
57056;BME280;42945;51.718;5.324;2022-12-18T03:36:09;102587.41;;;-8.12;100.00
57056;BME280;42945;51.718;5.324;2022-12-18T03:38:34;102510.13;;;-8.31;100.00
57056;BME280;42945;51.718;5.324;2022-12-18T03:41:11;102460.81;;;-8.96;100.00
57056;BME280;42945;51.718;5.324;2022-12-18T03:47:06;102534.31;;;-8.27;100.00
57056;BME280;42945;51.718;5.324;2022-12-18T03:49:41;102530.25;;;-8.22;100.00
57056;BME280;42945;51.718;5.324;2022-12-18T03:52:26;102562.31;;;-8.16;100.00
57056;BME280;42945;51.718;5.324;2022-12-18T03:54:54;102505.00;;;-8.31;100.00
57056;BME280;42945;51.718;5.324;2022-12-18T03:57:25;102539.00;;;-8.19;100.00
57056;BME280;42945;51.718;5.324;2022-12-18T03:59:56;102439.06;;;-8.84;100.00
57056;BME280;42945;51.718;5.324;2022-12-18T04:02:23;102513.41;;;-8.34;100.00
57056;BME280;42945;51.718;5.324;2022-12-18T04:04:52;102561.53;;;-8.33;100.00
57056;BME280;42945;51.718;5.324;2022-12-18T04:07:19;102430.47;;;-8.85;100.00
57056;BME280;42945;51.718;5.324;2022-12-18T04:09:46;102520.78;;;-8.23;100.00
57056;BME280;42945;51.718;5.324;2022-12-18T04:15:27;102373.13;;;-9.02;100.00
57056;BME280;42945;51.718;5.324;2022-12-18T04:17:53;102386.88;;;-9.01;100.00
57056;BME280;42945;51.718;5.324;2022-12-18T04:20:18;102527.00;;;-8.18;100.00
57056;BME280;42945;51.718;5.324;2022-12-18T04:22:45;102491.16;;;-8.33;100.00
57056;BME280;42945;51.718;5.324;2022-12-18T04:25:10;102539.00;;;-8.19;100.00
57056;BME280;42945;51.718;5.324;2022-12-18T04:27:36;102754.66;;;-7.04;100.00
57056;BME280;42945;51.718;5.324;2022-12-18T04:30:02;102538.06;;;-8.21;100.00
57056;BME280;42945;51.718;5.324;2022-12-18T04:32:27;102557.69;;;-8.23;100.00
57056;BME280;42945;51.718;5.324;2022-12-18T04:34:52;102488.19;;;-8.42;100.00
57056;BME280;42945;51.718;5.324;2022-12-18T04:37:18;102545.88;;;-8.37;100.00
57056;BME280;42945;51.718;5.324;2022-12-18T04:39:43;102558.06;;;-8.33;100.00
57056;BME280;42945;51.718;5.324;2022-12-18T04:42:08;102472.81;;;-8.41;100.00
57056;BME280;42945;51.718;5.324;2022-12-18T04:44:34;102556.97;;;-8.38;100.00
57056;BME280;42945;51.718;5.324;2022-12-18T04:46:59;102578.91;;;-8.46;100.00
57056;BME280;42945;51.718;5.324;2022-12-18T04:49:25;102550.75;;;-8.43;100.00
57056;BME280;42945;51.718;5.324;2022-12-18T04:51:50;102575.88;;;-8.56;100.00
57056;BME280;42945;51.718;5.324;2022-12-18T04:54:16;102528.13;;;-8.50;100.00
57056;BME280;42945;51.718;5.324;2022-12-18T04:56:42;102584.13;;;-8.45;100.00
57056;BME280;42945;51.718;5.324;2022-12-18T04:59:07;102576.47;;;-8.43;100.00
57056;BME280;42945;51.718;5.324;2022-12-18T05:01:32;102525.31;;;-8.55;100.00
57056;BME280;42945;51.718;5.324;2022-12-18T05:03:58;102568.75;;;-8.43;100.00
57056;BME280;42945;51.718;5.324;2022-12-18T05:06:23;102567.97;;;-8.42;100.00
57056;BME280;42945;51.718;5.324;2022-12-18T05:08:48;102466.78;;;-9.31;100.00
57056;BME280;42945;51.718;5.324;2022-12-18T05:11:14;102548.63;;;-8.70;100.00
57056;BME280;42945;51.718;5.324;2022-12-18T05:13:41;102568.91;;;-8.58;100.00
57056;BME280;42945;51.718;5.324;2022-12-18T05:16:07;102546.56;;;-8.59;100.00
57056;BME280;42945;51.718;5.324;2022-12-18T05:18:33;102452.41;;;-9.27;100.00
57056;BME280;42945;51.718;5.324;2022-12-18T05:20:59;102596.75;;;-8.49;100.00
57056;BME280;42945;51.718;5.324;2022-12-18T05:23:25;102537.81;;;-8.63;100.00
57056;BME280;42945;51.718;5.324;2022-12-18T05:25:59;102597.34;;;-8.55;100.00
57056;BME280;42945;51.718;5.324;2022-12-18T05:28:26;102596.91;;;-8.64;100.00
57056;BME280;42945;51.718;5.324;2022-12-18T05:30:57;102521.41;;;-8.65;100.00
57056;BME280;42945;51.718;5.324;2022-12-18T05:33:25;102556.34;;;-8.70;100.00
57056;BME280;42945;51.718;5.324;2022-12-18T05:35:55;102556.84;;;-8.59;100.00
57056;BME280;42945;51.718;5.324;2022-12-18T05:38:41;102529.72;;;-8.71;100.00
57056;BME280;42945;51.718;5.324;2022-12-18T05:41:07;102559.56;;;-8.74;100.00
57056;BME280;42945;51.718;5.324;2022-12-18T05:43:35;102555.38;;;-8.72;100.00
57056;BME280;42945;51.718;5.324;2022-12-18T05:46:08;102556.47;;;-8.85;100.00
57056;BME280;42945;51.718;5.324;2022-12-18T05:48:34;102505.50;;;-8.76;100.00
57056;BME280;42945;51.718;5.324;2022-12-18T05:51:09;102555.03;;;-8.62;100.00
57056;BME280;42945;51.718;5.324;2022-12-18T05:53:36;102542.66;;;-8.69;100.00
57056;BME280;42945;51.718;5.324;2022-12-18T05:56:03;102527.22;;;-8.69;100.00
57056;BME280;42945;51.718;5.324;2022-12-18T05:58:29;102539.88;;;-8.74;100.00
57056;BME280;42945;51.718;5.324;2022-12-18T06:00:55;102522.97;;;-8.68;100.00
57056;BME280;42945;51.718;5.324;2022-12-18T06:03:20;102501.50;;;-8.69;100.00
57056;BME280;42945;51.718;5.324;2022-12-18T06:05:45;102559.28;;;-8.62;100.00
57056;BME280;42945;51.718;5.324;2022-12-18T06:08:12;102529.44;;;-8.59;100.00
57056;BME280;42945;51.718;5.324;2022-12-18T06:10:38;102549.41;;;-8.71;100.00
57056;BME280;42945;51.718;5.324;2022-12-18T06:13:04;102554.66;;;-8.52;100.00
57056;BME280;42945;51.718;5.324;2022-12-18T06:15:29;102535.97;;;-8.65;100.00
57056;BME280;42945;51.718;5.324;2022-12-18T06:17:55;102362.41;;;-9.29;100.00
57056;BME280;42945;51.718;5.324;2022-12-18T06:20:20;102469.47;;;-8.58;100.00
57056;BME280;42945;51.718;5.324;2022-12-18T06:22:46;102520.41;;;-8.50;100.00
57056;BME280;42945;51.718;5.324;2022-12-18T06:25:11;102513.28;;;-8.56;100.00
57056;BME280;42945;51.718;5.324;2022-12-18T06:27:37;102398.16;;;-9.16;100.00
57056;BME280;42945;51.718;5.324;2022-12-18T06:30:03;102536.34;;;-8.58;100.00
57056;BME280;42945;51.718;5.324;2022-12-18T06:32:30;102483.94;;;-8.60;100.00
57056;BME280;42945;51.718;5.324;2022-12-18T06:34:55;102498.88;;;-8.53;100.00
57056;BME280;42945;51.718;5.324;2022-12-18T06:37:21;102504.25;;;-8.66;100.00
57056;BME280;42945;51.718;5.324;2022-12-18T06:39:49;102502.13;;;-8.57;100.00
57056;BME280;42945;51.718;5.324;2022-12-18T06:42:15;102533.13;;;-8.54;100.00
57056;BME280;42945;51.718;5.324;2022-12-18T06:44:40;102540.53;;;-8.60;100.00
57056;BME280;42945;51.718;5.324;2022-12-18T06:47:05;102488.88;;;-8.64;100.00
57056;BME280;42945;51.718;5.324;2022-12-18T06:49:30;102372.09;;;-9.23;100.00
57056;BME280;42945;51.718;5.324;2022-12-18T06:51:56;102492.22;;;-8.47;100.00
57056;BME280;42945;51.718;5.324;2022-12-18T06:54:21;102413.28;;;-9.22;100.00
57056;BME280;42945;51.718;5.324;2022-12-18T06:56:47;102530.63;;;-8.52;100.00
57056;BME280;42945;51.718;5.324;2022-12-18T06:59:12;102385.53;;;-9.29;100.00
57056;BME280;42945;51.718;5.324;2022-12-18T07:01:38;102505.06;;;-8.49;100.00
57056;BME280;42945;51.718;5.324;2022-12-18T07:04:03;102504.44;;;-8.43;100.00
57056;BME280;42945;51.718;5.324;2022-12-18T07:06:30;102448.69;;;-8.62;100.00
57056;BME280;42945;51.718;5.324;2022-12-18T07:08:55;102494.97;;;-8.62;100.00
57056;BME280;42945;51.718;5.324;2022-12-18T07:11:24;102241.56;;;-9.86;100.00
57056;BME280;42945;51.718;5.324;2022-12-18T07:13:49;102464.72;;;-8.68;100.00
57056;BME280;42945;51.718;5.324;2022-12-18T07:16:17;102483.75;;;-8.64;100.00
57056;BME280;42945;51.718;5.324;2022-12-18T07:18:43;102423.88;;;-8.80;100.00
57056;BME280;42945;51.718;5.324;2022-12-18T07:21:12;102478.91;;;-8.39;100.00
57056;BME280;42945;51.718;5.324;2022-12-18T07:23:37;102531.34;;;-8.17;100.00
57056;BME280;42945;51.718;5.324;2022-12-18T07:26:08;102413.66;;;-8.59;100.00
57056;BME280;42945;51.718;5.324;2022-12-18T07:28:35;102438.22;;;-8.47;100.00
57056;BME280;42945;51.718;5.324;2022-12-18T07:31:05;102367.19;;;-8.63;100.00
57056;BME280;42945;51.718;5.324;2022-12-18T07:33:34;102459.88;;;-8.42;100.00
57056;BME280;42945;51.718;5.324;2022-12-18T07:36:00;102437.81;;;-8.57;100.00
57056;BME280;42945;51.718;5.324;2022-12-18T07:38:29;102326.28;;;-9.14;100.00
57056;BME280;42945;51.718;5.324;2022-12-18T07:40:54;102355.22;;;-9.18;100.00
57056;BME280;42945;51.718;5.324;2022-12-18T07:43:20;102383.63;;;-8.60;100.00
57056;BME280;42945;51.718;5.324;2022-12-18T07:45:45;102422.38;;;-8.57;100.00
57056;BME280;42945;51.718;5.324;2022-12-18T07:48:17;102426.38;;;-8.44;100.00
57056;BME280;42945;51.718;5.324;2022-12-18T07:50:43;102396.56;;;-8.39;100.00
57056;BME280;42945;51.718;5.324;2022-12-18T07:53:08;102396.44;;;-8.42;100.00
57056;BME280;42945;51.718;5.324;2022-12-18T07:55:34;102404.69;;;-8.29;100.00
57056;BME280;42945;51.718;5.324;2022-12-18T07:58:05;102394.66;;;-8.23;100.00
57056;BME280;42945;51.718;5.324;2022-12-18T08:00:30;102378.72;;;-8.15;100.00
57056;BME280;42945;51.718;5.324;2022-12-18T08:02:59;102384.09;;;-8.10;100.00
57056;BME280;42945;51.718;5.324;2022-12-18T08:05:25;102423.78;;;-8.05;100.00
57056;BME280;42945;51.718;5.324;2022-12-18T08:07:52;102356.78;;;-8.06;100.00
57056;BME280;42945;51.718;5.324;2022-12-18T08:10:21;102370.53;;;-8.06;100.00
57056;BME280;42945;51.718;5.324;2022-12-18T08:12:51;102432.41;;;-7.85;100.00
57056;BME280;42945;51.718;5.324;2022-12-18T08:15:19;102384.69;;;-7.96;100.00
57056;BME280;42945;51.718;5.324;2022-12-18T08:17:44;102332.13;;;-8.42;100.00
57056;BME280;42945;51.718;5.324;2022-12-18T08:20:13;102457.44;;;-7.61;100.00
57056;BME280;42945;51.718;5.324;2022-12-18T08:22:41;102433.47;;;-7.80;100.00
57056;BME280;42945;51.718;5.324;2022-12-18T08:25:08;102376.94;;;-7.77;100.00
57056;BME280;42945;51.718;5.324;2022-12-18T08:27:33;102412.50;;;-7.68;100.00
57056;BME280;42945;51.718;5.324;2022-12-18T08:29:59;102246.28;;;-8.23;100.00
57056;BME280;42945;51.718;5.324;2022-12-18T08:32:26;102259.53;;;-8.14;100.00
57056;BME280;42945;51.718;5.324;2022-12-18T08:34:52;102274.19;;;-8.32;100.00
57056;BME280;42945;51.718;5.324;2022-12-18T08:37:17;102398.84;;;-7.46;100.00
57056;BME280;42945;51.718;5.324;2022-12-18T08:39:42;102389.72;;;-7.38;100.00
57056;BME280;42945;51.718;5.324;2022-12-18T08:42:11;102384.09;;;-7.27;100.00
57056;BME280;42945;51.718;5.324;2022-12-18T08:44:55;102367.38;;;-7.37;100.00
57056;BME280;42945;51.718;5.324;2022-12-18T08:47:20;102321.13;;;-7.34;100.00
57056;BME280;42945;51.718;5.324;2022-12-18T08:49:46;102399.69;;;-7.24;100.00
57056;BME280;42945;51.718;5.324;2022-12-18T08:52:14;102375.28;;;-7.12;100.00
57056;BME280;42945;51.718;5.324;2022-12-18T08:54:39;102404.88;;;-7.02;100.00
57056;BME280;42945;51.718;5.324;2022-12-18T08:57:05;102425.16;;;-6.90;100.00
57056;BME280;42945;51.718;5.324;2022-12-18T08:59:30;102426.31;;;-6.82;100.00
57056;BME280;42945;51.718;5.324;2022-12-18T09:01:55;102390.59;;;-6.94;100.00
57056;BME280;42945;51.718;5.324;2022-12-18T09:04:21;102382.53;;;-6.80;100.00
57056;BME280;42945;51.718;5.324;2022-12-18T09:06:46;102402.97;;;-6.62;100.00
57056;BME280;42945;51.718;5.324;2022-12-18T09:09:12;102371.81;;;-6.67;100.00
57056;BME280;42945;51.718;5.324;2022-12-18T09:11:38;102356.97;;;-6.50;100.00
57056;BME280;42945;51.718;5.324;2022-12-18T09:14:04;102404.38;;;-6.48;100.00
57056;BME280;42945;51.718;5.324;2022-12-18T09:16:30;102397.84;;;-6.38;100.00
57056;BME280;42945;51.718;5.324;2022-12-18T09:18:56;102424.88;;;-6.28;100.00
57056;BME280;42945;51.718;5.324;2022-12-18T09:21:25;102369.91;;;-6.26;100.00
57056;BME280;42945;51.718;5.324;2022-12-18T09:23:53;102439.38;;;-6.32;100.00
57056;BME280;42945;51.718;5.324;2022-12-18T09:26:20;102403.91;;;-6.14;100.00
57056;BME280;42945;51.718;5.324;2022-12-18T09:28:46;102428.59;;;-5.98;100.00
57056;BME280;42945;51.718;5.324;2022-12-18T09:31:15;102403.53;;;-6.00;100.00
57056;BME280;42945;51.718;5.324;2022-12-18T09:33:41;102378.44;;;-6.04;100.00
57056;BME280;42945;51.718;5.324;2022-12-18T09:36:09;102388.28;;;-5.93;100.00
57056;BME280;42945;51.718;5.324;2022-12-18T09:38:36;102403.25;;;-5.82;100.00
57056;BME280;42945;51.718;5.324;2022-12-18T09:43:54;102383.56;;;-5.79;100.00
57056;BME280;42945;51.718;5.324;2022-12-18T09:46:28;102251.56;;;-6.39;100.00
57056;BME280;42945;51.718;5.324;2022-12-18T09:48:57;102305.44;;;-6.23;100.00
57056;BME280;42945;51.718;5.324;2022-12-18T09:51:28;102312.66;;;-5.61;100.00
57056;BME280;42945;51.718;5.324;2022-12-18T09:54:04;102340.66;;;-5.48;100.00
57056;BME280;42945;51.718;5.324;2022-12-18T09:56:35;102343.09;;;-5.53;100.00
57056;BME280;42945;51.718;5.324;2022-12-18T10:02:21;102339.50;;;-5.30;100.00
57056;BME280;42945;51.718;5.324;2022-12-18T10:05:31;102383.91;;;-5.17;100.00
57056;BME280;42945;51.718;5.324;2022-12-18T10:08:09;102345.63;;;-5.00;100.00
57056;BME280;42945;51.718;5.324;2022-12-18T10:11:01;102267.06;;;-5.59;100.00
57056;BME280;42945;51.718;5.324;2022-12-18T10:13:39;102347.94;;;-5.09;100.00
57056;BME280;42945;51.718;5.324;2022-12-18T10:27:14;102370.25;;;-4.55;100.00
57056;BME280;42945;51.718;5.324;2022-12-18T10:29:42;102385.69;;;-4.58;100.00
57056;BME280;42945;51.718;5.324;2022-12-18T10:32:17;102222.03;;;-5.08;100.00
57056;BME280;42945;51.718;5.324;2022-12-18T10:34:57;102226.19;;;-5.15;100.00
57056;BME280;42945;51.718;5.324;2022-12-18T10:37:30;102331.97;;;-4.35;100.00
57056;BME280;42945;51.718;5.324;2022-12-18T10:40:15;102319.88;;;-4.35;100.00
57056;BME280;42945;51.718;5.324;2022-12-18T10:42:41;102292.09;;;-4.40;100.00
57056;BME280;42945;51.718;5.324;2022-12-18T10:45:27;102278.84;;;-4.19;100.00
57056;BME280;42945;51.718;5.324;2022-12-18T10:47:52;102295.34;;;-4.16;100.00
57056;BME280;42945;51.718;5.324;2022-12-18T10:53:00;102139.81;;;-4.88;100.00
57056;BME280;42945;51.718;5.324;2022-12-18T10:55:33;102313.75;;;-4.06;100.00
57056;BME280;42945;51.718;5.324;2022-12-18T11:01:14;102234.34;;;-4.04;100.00
57056;BME280;42945;51.718;5.324;2022-12-18T11:03:45;102239.94;;;-3.86;100.00
57056;BME280;42945;51.718;5.324;2022-12-18T11:06:16;102303.09;;;-3.84;100.00
57056;BME280;42945;51.718;5.324;2022-12-18T11:08:56;102192.09;;;-4.35;100.00
57056;BME280;42945;51.718;5.324;2022-12-18T11:11:25;102308.69;;;-3.67;100.00
57056;BME280;42945;51.718;5.324;2022-12-18T11:14:16;102284.97;;;-3.82;100.00
57056;BME280;42945;51.718;5.324;2022-12-18T11:16:45;102283.56;;;-3.69;100.00
57056;BME280;42945;51.718;5.324;2022-12-18T11:19:31;102271.88;;;-3.52;100.00
57056;BME280;42945;51.718;5.324;2022-12-18T11:22:00;102140.72;;;-4.18;100.00
57056;BME280;42945;51.718;5.324;2022-12-18T11:24:34;102275.25;;;-3.56;100.00
57056;BME280;42945;51.718;5.324;2022-12-18T11:27:04;102280.53;;;-3.51;100.00
57056;BME280;42945;51.718;5.324;2022-12-18T11:29:39;102248.84;;;-3.38;100.00
57056;BME280;42945;51.718;5.324;2022-12-18T11:35:20;102256.06;;;-3.25;100.00
57056;BME280;42945;51.718;5.324;2022-12-18T11:37:54;102273.94;;;-3.39;100.00
57056;BME280;42945;51.718;5.324;2022-12-18T11:40:30;102138.88;;;-3.86;100.00
57056;BME280;42945;51.718;5.324;2022-12-18T11:43:06;102238.06;;;-3.17;100.00
57056;BME280;42945;51.718;5.324;2022-12-18T11:45:41;102138.91;;;-3.84;100.00
57056;BME280;42945;51.718;5.324;2022-12-18T11:48:38;102195.66;;;-3.19;100.00
57056;BME280;42945;51.718;5.324;2022-12-18T11:51:14;102175.91;;;-3.11;100.00
57056;BME280;42945;51.718;5.324;2022-12-18T11:53:44;102254.72;;;-3.07;100.00
57056;BME280;42945;51.718;5.324;2022-12-18T11:56:35;102204.63;;;-3.03;100.00
57056;BME280;42945;51.718;5.324;2022-12-18T11:59:12;102228.25;;;-2.89;100.00
57056;BME280;42945;51.718;5.324;2022-12-18T12:01:53;102214.53;;;-2.84;100.00
57056;BME280;42945;51.718;5.324;2022-12-18T12:07:19;102175.28;;;-2.99;100.00
57056;BME280;42945;51.718;5.324;2022-12-18T12:10:08;102191.19;;;-2.82;100.00
57056;BME280;42945;51.718;5.324;2022-12-18T12:15:28;102180.69;;;-2.88;100.00
57056;BME280;42945;51.718;5.324;2022-12-18T12:18:13;102175.84;;;-2.71;100.00
57056;BME280;42945;51.718;5.324;2022-12-18T12:20:57;102202.25;;;-2.91;100.00
57056;BME280;42945;51.718;5.324;2022-12-18T12:28:53;101961.13;;;-4.17;100.00
57056;BME280;42945;51.718;5.324;2022-12-18T12:32:04;102073.38;;;-3.36;100.00
57056;BME280;42945;51.718;5.324;2022-12-18T12:39:52;102153.16;;;-2.80;100.00
57056;BME280;42945;51.718;5.324;2022-12-18T12:42:34;101916.56;;;-4.01;100.00
57056;BME280;42945;51.718;5.324;2022-12-18T12:45:27;102129.84;;;-2.77;100.00
57056;BME280;42945;51.718;5.324;2022-12-18T12:47:57;102138.72;;;-2.64;100.00
57056;BME280;42945;51.718;5.324;2022-12-18T12:50:23;102280.16;;;-2.01;100.00
57056;BME280;42945;51.718;5.324;2022-12-18T12:52:52;102129.34;;;-2.58;100.00
57056;BME280;42945;51.718;5.324;2022-12-18T12:55:24;102120.53;;;-2.64;100.00
57056;BME280;42945;51.718;5.324;2022-12-18T13:00:21;102120.53;;;-2.64;100.00
57056;BME280;42945;51.718;5.324;2022-12-18T13:08:07;102126.50;;;-2.70;100.00
57056;BME280;42945;51.718;5.324;2022-12-18T13:10:40;102000.88;;;-3.28;100.00
57056;BME280;42945;51.718;5.324;2022-12-18T13:13:08;102092.75;;;-2.70;100.00
57056;BME280;42945;51.718;5.324;2022-12-18T13:15:43;102078.88;;;-2.70;100.00
57056;BME280;42945;51.718;5.324;2022-12-18T13:20:35;102081.78;;;-2.53;100.00
57056;BME280;42945;51.718;5.324;2022-12-18T13:23:19;102144.91;;;-2.56;100.00
57056;BME280;42945;51.718;5.324;2022-12-18T13:31:02;102068.69;;;-2.60;100.00
57056;BME280;42945;51.718;5.324;2022-12-18T13:36:02;102065.59;;;-2.87;100.00
57056;BME280;42945;51.718;5.324;2022-12-18T13:43:29;102090.28;;;-2.62;100.00
57056;BME280;42945;51.718;5.324;2022-12-18T13:46:01;102107.75;;;-2.53;100.00
57056;BME280;42945;51.718;5.324;2022-12-18T13:48:29;102097.53;;;-2.44;100.00
57056;BME280;42945;51.718;5.324;2022-12-18T13:51:00;102086.19;;;-2.48;100.00
57056;BME280;42945;51.718;5.324;2022-12-18T13:53:37;102030.09;;;-2.90;100.00
57056;BME280;42945;51.718;5.324;2022-12-18T13:56:04;102099.84;;;-2.58;100.00
57056;BME280;42945;51.718;5.324;2022-12-18T13:58:30;102087.91;;;-2.50;100.00
57056;BME280;42945;51.718;5.324;2022-12-18T14:00:55;102067.13;;;-2.48;100.00
57056;BME280;42945;51.718;5.324;2022-12-18T14:03:26;101978.50;;;-3.23;100.00
57056;BME280;42945;51.718;5.324;2022-12-18T14:05:54;102060.06;;;-2.57;100.00
57056;BME280;42945;51.718;5.324;2022-12-18T14:08:20;102075.94;;;-2.40;100.00
57056;BME280;42945;51.718;5.324;2022-12-18T14:10:48;102057.63;;;-2.48;100.00
57056;BME280;42945;51.718;5.324;2022-12-18T14:13:29;102102.81;;;-2.38;100.00
57056;BME280;42945;51.718;5.324;2022-12-18T14:15:56;102086.22;;;-2.45;100.00
57056;BME280;42945;51.718;5.324;2022-12-18T14:18:45;102100.06;;;-2.47;100.00
57056;BME280;42945;51.718;5.324;2022-12-18T14:21:25;102079.41;;;-2.40;100.00